sensor_id;sensor_type;location;lat;lon;timestamp;temperature;humidity
31729;DHT22;18309;43.658;1.312;2023-08-20T00:00:52;28.40;92.20
31729;DHT22;18309;43.658;1.312;2023-08-20T00:03:18;28.40;92.10
31729;DHT22;18309;43.658;1.312;2023-08-20T00:05:44;28.40;92.20
31729;DHT22;18309;43.658;1.312;2023-08-20T00:08:09;28.40;92.30
31729;DHT22;18309;43.658;1.312;2023-08-20T00:10:35;28.30;92.30
31729;DHT22;18309;43.658;1.312;2023-08-20T00:13:01;28.30;92.40
31729;DHT22;18309;43.658;1.312;2023-08-20T00:15:26;28.30;92.50
31729;DHT22;18309;43.658;1.312;2023-08-20T00:17:54;28.30;92.50
31729;DHT22;18309;43.658;1.312;2023-08-20T00:20:21;28.30;92.70
31729;DHT22;18309;43.658;1.312;2023-08-20T00:22:47;28.20;92.50
31729;DHT22;18309;43.658;1.312;2023-08-20T00:25:15;28.20;92.60
31729;DHT22;18309;43.658;1.312;2023-08-20T00:27:41;28.30;92.70
31729;DHT22;18309;43.658;1.312;2023-08-20T00:30:08;28.20;92.90
31729;DHT22;18309;43.658;1.312;2023-08-20T00:32:34;28.20;93.00
31729;DHT22;18309;43.658;1.312;2023-08-20T00:35:01;28.10;93.00
31729;DHT22;18309;43.658;1.312;2023-08-20T00:37:28;28.10;92.90
31729;DHT22;18309;43.658;1.312;2023-08-20T00:39:54;28.00;93.00
31729;DHT22;18309;43.658;1.312;2023-08-20T00:42:19;28.00;93.10
31729;DHT22;18309;43.658;1.312;2023-08-20T00:44:45;28.00;93.10
31729;DHT22;18309;43.658;1.312;2023-08-20T00:47:12;28.00;93.10
31729;DHT22;18309;43.658;1.312;2023-08-20T00:49:39;28.00;93.10
31729;DHT22;18309;43.658;1.312;2023-08-20T00:52:08;28.00;93.00
31729;DHT22;18309;43.658;1.312;2023-08-20T00:54:34;27.90;93.30
31729;DHT22;18309;43.658;1.312;2023-08-20T00:57:01;27.90;93.40
31729;DHT22;18309;43.658;1.312;2023-08-20T00:59:30;27.80;93.40
31729;DHT22;18309;43.658;1.312;2023-08-20T01:01:56;27.60;93.70
31729;DHT22;18309;43.658;1.312;2023-08-20T01:04:22;27.60;93.90
31729;DHT22;18309;43.658;1.312;2023-08-20T01:12:19;27.20;94.20
31729;DHT22;18309;43.658;1.312;2023-08-20T01:14:45;27.00;94.60
31729;DHT22;18309;43.658;1.312;2023-08-20T01:17:11;26.80;94.90
31729;DHT22;18309;43.658;1.312;2023-08-20T01:19:37;26.80;95.00
31729;DHT22;18309;43.658;1.312;2023-08-20T01:27:43;26.80;94.90
31729;DHT22;18309;43.658;1.312;2023-08-20T01:30:11;26.90;95.00
31729;DHT22;18309;43.658;1.312;2023-08-20T01:32:38;26.70;95.20
31729;DHT22;18309;43.658;1.312;2023-08-20T01:35:13;26.60;95.30
31729;DHT22;18309;43.658;1.312;2023-08-20T01:37:39;26.50;95.60
31729;DHT22;18309;43.658;1.312;2023-08-20T01:40:06;26.30;95.90
31729;DHT22;18309;43.658;1.312;2023-08-20T01:42:33;26.40;95.80
31729;DHT22;18309;43.658;1.312;2023-08-20T01:44:58;26.40;95.80
31729;DHT22;18309;43.658;1.312;2023-08-20T01:47:24;26.50;95.90
31729;DHT22;18309;43.658;1.312;2023-08-20T01:49:50;26.60;95.70
31729;DHT22;18309;43.658;1.312;2023-08-20T01:52:15;26.50;95.70
31729;DHT22;18309;43.658;1.312;2023-08-20T01:54:41;26.30;96.00
31729;DHT22;18309;43.658;1.312;2023-08-20T01:57:07;26.40;96.00
31729;DHT22;18309;43.658;1.312;2023-08-20T01:59:32;26.40;95.80
31729;DHT22;18309;43.658;1.312;2023-08-20T02:01:58;26.40;96.00
31729;DHT22;18309;43.658;1.312;2023-08-20T02:04:23;26.20;96.20
31729;DHT22;18309;43.658;1.312;2023-08-20T02:06:49;26.20;96.40
31729;DHT22;18309;43.658;1.312;2023-08-20T02:09:15;26.30;96.20
31729;DHT22;18309;43.658;1.312;2023-08-20T02:11:42;26.30;96.20
31729;DHT22;18309;43.658;1.312;2023-08-20T02:14:07;26.30;96.20
31729;DHT22;18309;43.658;1.312;2023-08-20T02:16:33;26.20;96.20
31729;DHT22;18309;43.658;1.312;2023-08-20T02:18:59;26.10;96.60
31729;DHT22;18309;43.658;1.312;2023-08-20T02:21:24;25.90;96.90
31729;DHT22;18309;43.658;1.312;2023-08-20T02:23:50;25.80;97.10
31729;DHT22;18309;43.658;1.312;2023-08-20T02:26:16;25.80;97.40
31729;DHT22;18309;43.658;1.312;2023-08-20T02:28:41;25.90;97.10
31729;DHT22;18309;43.658;1.312;2023-08-20T02:31:07;25.90;96.80
31729;DHT22;18309;43.658;1.312;2023-08-20T02:33:33;26.00;96.90
31729;DHT22;18309;43.658;1.312;2023-08-20T02:36:03;25.80;97.10
31729;DHT22;18309;43.658;1.312;2023-08-20T02:38:29;25.90;97.10
31729;DHT22;18309;43.658;1.312;2023-08-20T02:40:55;25.80;97.30
31729;DHT22;18309;43.658;1.312;2023-08-20T02:43:21;25.80;97.40
31729;DHT22;18309;43.658;1.312;2023-08-20T02:45:46;25.90;97.20
31729;DHT22;18309;43.658;1.312;2023-08-20T02:48:13;25.90;97.30
31729;DHT22;18309;43.658;1.312;2023-08-20T02:50:39;26.00;97.00
31729;DHT22;18309;43.658;1.312;2023-08-20T02:53:05;25.90;97.10
31729;DHT22;18309;43.658;1.312;2023-08-20T02:55:31;26.00;97.10
31729;DHT22;18309;43.658;1.312;2023-08-20T02:57:58;26.10;96.90
31729;DHT22;18309;43.658;1.312;2023-08-20T03:00:24;26.00;96.90
31729;DHT22;18309;43.658;1.312;2023-08-20T03:02:50;25.90;97.40
31729;DHT22;18309;43.658;1.312;2023-08-20T03:05:15;26.00;97.30
31729;DHT22;18309;43.658;1.312;2023-08-20T03:07:41;26.00;97.20
31729;DHT22;18309;43.658;1.312;2023-08-20T03:10:07;25.90;97.20
31729;DHT22;18309;43.658;1.312;2023-08-20T03:12:33;25.80;97.40
31729;DHT22;18309;43.658;1.312;2023-08-20T03:14:59;25.60;97.40
31729;DHT22;18309;43.658;1.312;2023-08-20T03:17:25;25.50;97.80
31729;DHT22;18309;43.658;1.312;2023-08-20T03:19:55;25.30;98.20
31729;DHT22;18309;43.658;1.312;2023-08-20T03:22:21;25.20;98.50
31729;DHT22;18309;43.658;1.312;2023-08-20T03:24:47;25.30;98.40
31729;DHT22;18309;43.658;1.312;2023-08-20T03:27:13;25.40;98.10
31729;DHT22;18309;43.658;1.312;2023-08-20T03:29:38;25.70;97.90
31729;DHT22;18309;43.658;1.312;2023-08-20T03:32:04;25.70;97.50
31729;DHT22;18309;43.658;1.312;2023-08-20T03:34:30;25.70;97.60
31729;DHT22;18309;43.658;1.312;2023-08-20T03:36:55;25.70;97.60
31729;DHT22;18309;43.658;1.312;2023-08-20T03:39:21;25.60;97.80
31729;DHT22;18309;43.658;1.312;2023-08-20T03:41:47;25.60;98.00
31729;DHT22;18309;43.658;1.312;2023-08-20T03:44:13;25.30;98.50
31729;DHT22;18309;43.658;1.312;2023-08-20T03:46:38;25.10;98.60
31729;DHT22;18309;43.658;1.312;2023-08-20T03:49:04;25.00;99.00
31729;DHT22;18309;43.658;1.312;2023-08-20T03:51:29;25.00;99.20
31729;DHT22;18309;43.658;1.312;2023-08-20T03:53:55;25.20;98.80
31729;DHT22;18309;43.658;1.312;2023-08-20T03:56:21;25.20;98.60
31729;DHT22;18309;43.658;1.312;2023-08-20T03:58:47;25.10;98.80
31729;DHT22;18309;43.658;1.312;2023-08-20T04:01:12;25.10;98.70
31729;DHT22;18309;43.658;1.312;2023-08-20T04:03:38;25.40;98.40
31729;DHT22;18309;43.658;1.312;2023-08-20T04:06:04;25.40;98.20
31729;DHT22;18309;43.658;1.312;2023-08-20T04:08:29;25.20;98.90
31729;DHT22;18309;43.658;1.312;2023-08-20T04:10:55;25.30;98.60
31729;DHT22;18309;43.658;1.312;2023-08-20T04:13:20;25.10;99.10
31729;DHT22;18309;43.658;1.312;2023-08-20T04:15:46;24.80;99.40
31729;DHT22;18309;43.658;1.312;2023-08-20T04:18:12;24.90;99.40
31729;DHT22;18309;43.658;1.312;2023-08-20T04:20:38;24.90;99.60
31729;DHT22;18309;43.658;1.312;2023-08-20T04:23:03;24.90;99.40
31729;DHT22;18309;43.658;1.312;2023-08-20T04:25:29;24.90;99.40
31729;DHT22;18309;43.658;1.312;2023-08-20T04:27:55;24.80;99.60
31729;DHT22;18309;43.658;1.312;2023-08-20T04:30:20;24.80;99.60
31729;DHT22;18309;43.658;1.312;2023-08-20T04:32:46;24.90;99.90
31729;DHT22;18309;43.658;1.312;2023-08-20T04:35:12;24.90;99.50
31729;DHT22;18309;43.658;1.312;2023-08-20T04:37:37;24.90;99.80
31729;DHT22;18309;43.658;1.312;2023-08-20T04:40:03;25.00;99.50
31729;DHT22;18309;43.658;1.312;2023-08-20T04:42:33;24.90;99.70
31729;DHT22;18309;43.658;1.312;2023-08-20T04:44:59;24.90;99.90
31729;DHT22;18309;43.658;1.312;2023-08-20T04:47:24;24.90;99.90
31729;DHT22;18309;43.658;1.312;2023-08-20T04:49:50;24.90;99.90
31729;DHT22;18309;43.658;1.312;2023-08-20T04:52:16;24.90;99.80
31729;DHT22;18309;43.658;1.312;2023-08-20T04:54:42;24.90;99.80
31729;DHT22;18309;43.658;1.312;2023-08-20T04:57:07;24.90;99.80
31729;DHT22;18309;43.658;1.312;2023-08-20T04:59:33;24.90;99.80
31729;DHT22;18309;43.658;1.312;2023-08-20T05:01:59;25.00;99.70
31729;DHT22;18309;43.658;1.312;2023-08-20T05:04:24;24.90;99.90
31729;DHT22;18309;43.658;1.312;2023-08-20T05:06:50;24.90;99.90
31729;DHT22;18309;43.658;1.312;2023-08-20T05:09:16;24.70;99.90
31729;DHT22;18309;43.658;1.312;2023-08-20T05:11:42;24.80;99.90
31729;DHT22;18309;43.658;1.312;2023-08-20T05:14:08;24.80;99.90
31729;DHT22;18309;43.658;1.312;2023-08-20T05:16:33;24.70;99.90
31729;DHT22;18309;43.658;1.312;2023-08-20T05:18:59;24.80;99.90
31729;DHT22;18309;43.658;1.312;2023-08-20T05:21:24;24.70;99.90
31729;DHT22;18309;43.658;1.312;2023-08-20T05:23:50;24.70;99.90
31729;DHT22;18309;43.658;1.312;2023-08-20T05:26:16;24.80;99.90
31729;DHT22;18309;43.658;1.312;2023-08-20T05:28:41;24.80;99.90
31729;DHT22;18309;43.658;1.312;2023-08-20T05:31:07;24.80;99.90
31729;DHT22;18309;43.658;1.312;2023-08-20T05:33:33;24.80;99.90
31729;DHT22;18309;43.658;1.312;2023-08-20T05:35:59;24.80;99.90
31729;DHT22;18309;43.658;1.312;2023-08-20T05:38:25;24.70;99.90
31729;DHT22;18309;43.658;1.312;2023-08-20T05:40:51;24.80;99.90
31729;DHT22;18309;43.658;1.312;2023-08-20T05:43:17;24.80;99.90
31729;DHT22;18309;43.658;1.312;2023-08-20T05:45:42;24.80;99.90
31729;DHT22;18309;43.658;1.312;2023-08-20T05:48:08;24.70;99.90
31729;DHT22;18309;43.658;1.312;2023-08-20T05:50:34;24.80;99.90
31729;DHT22;18309;43.658;1.312;2023-08-20T05:53:00;24.80;99.90
31729;DHT22;18309;43.658;1.312;2023-08-20T05:55:26;24.70;99.90
31729;DHT22;18309;43.658;1.312;2023-08-20T05:57:52;24.70;99.90
31729;DHT22;18309;43.658;1.312;2023-08-20T06:00:18;24.70;99.90
31729;DHT22;18309;43.658;1.312;2023-08-20T06:02:43;24.90;99.90
31729;DHT22;18309;43.658;1.312;2023-08-20T06:05:09;25.00;99.90
31729;DHT22;18309;43.658;1.312;2023-08-20T06:07:35;25.00;99.90
31729;DHT22;18309;43.658;1.312;2023-08-20T06:10:01;25.00;99.90
31729;DHT22;18309;43.658;1.312;2023-08-20T06:12:26;24.80;99.90
31729;DHT22;18309;43.658;1.312;2023-08-20T06:14:52;24.60;99.90
31729;DHT22;18309;43.658;1.312;2023-08-20T06:17:18;24.50;99.90
31729;DHT22;18309;43.658;1.312;2023-08-20T06:20:10;24.60;99.90
31729;DHT22;18309;43.658;1.312;2023-08-20T06:22:37;24.60;99.90
31729;DHT22;18309;43.658;1.312;2023-08-20T06:25:04;24.60;99.90
31729;DHT22;18309;43.658;1.312;2023-08-20T06:27:30;24.70;99.90
31729;DHT22;18309;43.658;1.312;2023-08-20T06:29:56;24.80;99.90
31729;DHT22;18309;43.658;1.312;2023-08-20T06:32:22;24.70;99.90
31729;DHT22;18309;43.658;1.312;2023-08-20T06:34:48;24.80;99.90
31729;DHT22;18309;43.658;1.312;2023-08-20T06:37:13;24.90;99.90
31729;DHT22;18309;43.658;1.312;2023-08-20T06:39:39;24.90;99.90
31729;DHT22;18309;43.658;1.312;2023-08-20T06:42:05;25.00;99.90
31729;DHT22;18309;43.658;1.312;2023-08-20T06:44:30;25.10;99.90
31729;DHT22;18309;43.658;1.312;2023-08-20T06:46:56;25.20;99.90
31729;DHT22;18309;43.658;1.312;2023-08-20T06:49:22;25.20;99.90
31729;DHT22;18309;43.658;1.312;2023-08-20T06:51:47;25.30;99.90
31729;DHT22;18309;43.658;1.312;2023-08-20T06:54:14;25.30;99.90
31729;DHT22;18309;43.658;1.312;2023-08-20T06:56:41;25.40;99.90
31729;DHT22;18309;43.658;1.312;2023-08-20T06:59:07;25.50;99.90
31729;DHT22;18309;43.658;1.312;2023-08-20T07:01:32;25.50;99.80
31729;DHT22;18309;43.658;1.312;2023-08-20T07:03:58;25.60;99.60
31729;DHT22;18309;43.658;1.312;2023-08-20T07:06:24;25.60;99.70
31729;DHT22;18309;43.658;1.312;2023-08-20T07:08:50;25.70;99.70
31729;DHT22;18309;43.658;1.312;2023-08-20T07:11:16;25.80;99.50
31729;DHT22;18309;43.658;1.312;2023-08-20T07:13:42;25.80;99.30
31729;DHT22;18309;43.658;1.312;2023-08-20T07:16:08;25.80;99.30
31729;DHT22;18309;43.658;1.312;2023-08-20T07:18:33;25.90;99.10
31729;DHT22;18309;43.658;1.312;2023-08-20T07:20:59;25.90;99.20
31729;DHT22;18309;43.658;1.312;2023-08-20T07:23:25;26.00;99.00
31729;DHT22;18309;43.658;1.312;2023-08-20T07:25:50;26.10;98.90
31729;DHT22;18309;43.658;1.312;2023-08-20T07:28:19;26.10;98.80
31729;DHT22;18309;43.658;1.312;2023-08-20T07:31:07;26.20;98.70
31729;DHT22;18309;43.658;1.312;2023-08-20T07:33:33;26.20;98.50
31729;DHT22;18309;43.658;1.312;2023-08-20T07:35:58;26.30;98.40
31729;DHT22;18309;43.658;1.312;2023-08-20T07:38:24;26.30;98.40
31729;DHT22;18309;43.658;1.312;2023-08-20T07:40:50;26.30;98.40
31729;DHT22;18309;43.658;1.312;2023-08-20T07:43:15;26.40;98.40
31729;DHT22;18309;43.658;1.312;2023-08-20T07:45:41;26.40;98.30
31729;DHT22;18309;43.658;1.312;2023-08-20T07:48:07;26.50;98.70
31729;DHT22;18309;43.658;1.312;2023-08-20T07:50:33;26.60;98.10
31729;DHT22;18309;43.658;1.312;2023-08-20T07:53:00;26.70;98.10
31729;DHT22;18309;43.658;1.312;2023-08-20T07:55:26;26.80;97.90
31729;DHT22;18309;43.658;1.312;2023-08-20T07:57:51;26.80;97.80
31729;DHT22;18309;43.658;1.312;2023-08-20T08:00:18;26.80;97.90
31729;DHT22;18309;43.658;1.312;2023-08-20T08:02:43;26.90;98.50
31729;DHT22;18309;43.658;1.312;2023-08-20T08:05:09;26.90;98.00
31729;DHT22;18309;43.658;1.312;2023-08-20T08:07:35;26.90;97.80
31729;DHT22;18309;43.658;1.312;2023-08-20T08:10:00;26.90;97.70
31729;DHT22;18309;43.658;1.312;2023-08-20T08:12:26;26.90;97.60
31729;DHT22;18309;43.658;1.312;2023-08-20T08:14:52;27.00;97.60
31729;DHT22;18309;43.658;1.312;2023-08-20T08:17:17;27.00;97.50
31729;DHT22;18309;43.658;1.312;2023-08-20T08:19:43;27.00;97.20
31729;DHT22;18309;43.658;1.312;2023-08-20T08:22:09;27.10;97.10
31729;DHT22;18309;43.658;1.312;2023-08-20T08:24:34;27.20;96.90
31729;DHT22;18309;43.658;1.312;2023-08-20T08:27:00;27.20;96.90
31729;DHT22;18309;43.658;1.312;2023-08-20T08:29:26;27.20;96.80
31729;DHT22;18309;43.658;1.312;2023-08-20T08:31:51;27.20;97.30
31729;DHT22;18309;43.658;1.312;2023-08-20T08:34:17;27.30;96.80
31729;DHT22;18309;43.658;1.312;2023-08-20T08:36:43;27.30;96.70
31729;DHT22;18309;43.658;1.312;2023-08-20T08:39:10;27.30;96.60
31729;DHT22;18309;43.658;1.312;2023-08-20T08:41:38;27.40;96.60
31729;DHT22;18309;43.658;1.312;2023-08-20T08:44:08;27.40;96.50
31729;DHT22;18309;43.658;1.312;2023-08-20T08:46:37;27.40;96.50
31729;DHT22;18309;43.658;1.312;2023-08-20T08:49:03;27.50;96.40
31729;DHT22;18309;43.658;1.312;2023-08-20T08:51:30;27.50;96.30
31729;DHT22;18309;43.658;1.312;2023-08-20T08:53:57;27.60;96.20
31729;DHT22;18309;43.658;1.312;2023-08-20T08:56:23;27.60;96.20
31729;DHT22;18309;43.658;1.312;2023-08-20T08:58:48;27.60;96.30
31729;DHT22;18309;43.658;1.312;2023-08-20T09:01:14;27.70;96.30
31729;DHT22;18309;43.658;1.312;2023-08-20T09:03:40;27.70;96.20
31729;DHT22;18309;43.658;1.312;2023-08-20T09:06:09;27.70;96.10
31729;DHT22;18309;43.658;1.312;2023-08-20T09:08:35;27.70;96.00
31729;DHT22;18309;43.658;1.312;2023-08-20T09:11:02;27.80;95.70
31729;DHT22;18309;43.658;1.312;2023-08-20T09:13:35;27.80;95.60
31729;DHT22;18309;43.658;1.312;2023-08-20T09:16:04;27.80;95.50
31729;DHT22;18309;43.658;1.312;2023-08-20T09:18:31;27.90;95.60
31729;DHT22;18309;43.658;1.312;2023-08-20T09:20:57;27.90;95.50
31729;DHT22;18309;43.658;1.312;2023-08-20T09:23:24;28.00;95.50
31729;DHT22;18309;43.658;1.312;2023-08-20T09:25:53;28.00;95.50
31729;DHT22;18309;43.658;1.312;2023-08-20T09:28:18;28.10;95.50
31729;DHT22;18309;43.658;1.312;2023-08-20T09:31:00;28.10;95.40
31729;DHT22;18309;43.658;1.312;2023-08-20T09:33:29;28.10;95.20
31729;DHT22;18309;43.658;1.312;2023-08-20T09:35:55;28.10;95.10
31729;DHT22;18309;43.658;1.312;2023-08-20T09:38:21;28.10;95.00
31729;DHT22;18309;43.658;1.312;2023-08-20T09:40:52;28.20;94.90
31729;DHT22;18309;43.658;1.312;2023-08-20T09:43:19;28.30;94.80
31729;DHT22;18309;43.658;1.312;2023-08-20T09:45:46;28.30;94.70
31729;DHT22;18309;43.658;1.312;2023-08-20T09:48:18;28.40;94.60
31729;DHT22;18309;43.658;1.312;2023-08-20T09:50:47;28.30;94.30
31729;DHT22;18309;43.658;1.312;2023-08-20T09:53:28;28.40;94.20
31729;DHT22;18309;43.658;1.312;2023-08-20T09:56:09;28.40;94.00
31729;DHT22;18309;43.658;1.312;2023-08-20T09:58:38;28.50;93.90
31729;DHT22;18309;43.658;1.312;2023-08-20T10:01:06;28.50;93.90
31729;DHT22;18309;43.658;1.312;2023-08-20T10:03:33;28.50;93.80
31729;DHT22;18309;43.658;1.312;2023-08-20T10:05:59;28.60;93.60
31729;DHT22;18309;43.658;1.312;2023-08-20T10:08:26;28.60;93.70
31729;DHT22;18309;43.658;1.312;2023-08-20T10:10:52;28.60;93.70
31729;DHT22;18309;43.658;1.312;2023-08-20T10:13:18;28.80;93.20
31729;DHT22;18309;43.658;1.312;2023-08-20T10:15:44;28.80;93.10
31729;DHT22;18309;43.658;1.312;2023-08-20T10:18:11;28.80;93.20
31729;DHT22;18309;43.658;1.312;2023-08-20T10:20:39;28.80;93.20
31729;DHT22;18309;43.658;1.312;2023-08-20T10:23:06;28.90;93.10
31729;DHT22;18309;43.658;1.312;2023-08-20T10:25:40;28.90;93.00
31729;DHT22;18309;43.658;1.312;2023-08-20T10:28:25;28.90;93.00
31729;DHT22;18309;43.658;1.312;2023-08-20T10:31:04;28.90;93.00
31729;DHT22;18309;43.658;1.312;2023-08-20T10:36:20;29.10;92.80
31729;DHT22;18309;43.658;1.312;2023-08-20T10:38:55;29.10;92.50
31729;DHT22;18309;43.658;1.312;2023-08-20T10:41:26;29.10;92.40
31729;DHT22;18309;43.658;1.312;2023-08-20T10:43:52;29.20;92.40
31729;DHT22;18309;43.658;1.312;2023-08-20T10:46:22;29.20;92.20
31729;DHT22;18309;43.658;1.312;2023-08-20T10:48:52;29.30;92.10
31729;DHT22;18309;43.658;1.312;2023-08-20T10:56:46;29.40;91.80
31729;DHT22;18309;43.658;1.312;2023-08-20T11:01:57;29.50;91.50
31729;DHT22;18309;43.658;1.312;2023-08-20T11:04:25;29.60;91.50
31729;DHT22;18309;43.658;1.312;2023-08-20T11:06:55;29.60;91.30
31729;DHT22;18309;43.658;1.312;2023-08-20T11:09:22;29.60;91.10
31729;DHT22;18309;43.658;1.312;2023-08-20T11:11:48;29.60;91.00
31729;DHT22;18309;43.658;1.312;2023-08-20T11:14:14;29.70;91.00
31729;DHT22;18309;43.658;1.312;2023-08-20T11:16:41;29.70;90.90
31729;DHT22;18309;43.658;1.312;2023-08-20T11:19:07;29.80;90.90
31729;DHT22;18309;43.658;1.312;2023-08-20T11:21:43;29.80;90.80
31729;DHT22;18309;43.658;1.312;2023-08-20T11:24:09;29.90;90.80
31729;DHT22;18309;43.658;1.312;2023-08-20T11:26:36;29.90;90.70
31729;DHT22;18309;43.658;1.312;2023-08-20T11:29:11;29.90;90.70
31729;DHT22;18309;43.658;1.312;2023-08-20T11:31:47;30.00;90.70
31729;DHT22;18309;43.658;1.312;2023-08-20T11:34:13;30.00;90.60
31729;DHT22;18309;43.658;1.312;2023-08-20T11:36:40;30.10;90.70
31729;DHT22;18309;43.658;1.312;2023-08-20T11:39:07;30.10;90.50
31729;DHT22;18309;43.658;1.312;2023-08-20T11:41:36;30.10;90.40
31729;DHT22;18309;43.658;1.312;2023-08-20T11:44:02;30.20;90.30
31729;DHT22;18309;43.658;1.312;2023-08-20T11:46:29;30.20;90.20
31729;DHT22;18309;43.658;1.312;2023-08-20T11:49:10;30.30;90.20
31729;DHT22;18309;43.658;1.312;2023-08-20T11:51:36;30.30;90.10
31729;DHT22;18309;43.658;1.312;2023-08-20T11:54:10;30.40;90.20
31729;DHT22;18309;43.658;1.312;2023-08-20T11:56:43;30.40;90.10
31729;DHT22;18309;43.658;1.312;2023-08-20T11:59:10;30.50;90.10
31729;DHT22;18309;43.658;1.312;2023-08-20T12:01:37;30.50;89.90
31729;DHT22;18309;43.658;1.312;2023-08-20T12:04:07;30.50;89.90
31729;DHT22;18309;43.658;1.312;2023-08-20T12:06:34;30.60;89.70
31729;DHT22;18309;43.658;1.312;2023-08-20T12:09:01;30.60;89.10
31729;DHT22;18309;43.658;1.312;2023-08-20T12:11:28;30.70;89.40
31729;DHT22;18309;43.658;1.312;2023-08-20T12:13:55;30.70;89.20
31729;DHT22;18309;43.658;1.312;2023-08-20T12:16:24;30.70;89.00
31729;DHT22;18309;43.658;1.312;2023-08-20T12:18:50;30.80;88.50
31729;DHT22;18309;43.658;1.312;2023-08-20T12:21:18;30.80;88.20
31729;DHT22;18309;43.658;1.312;2023-08-20T12:23:44;30.90;88.00
31729;DHT22;18309;43.658;1.312;2023-08-20T12:26:10;30.90;87.90
31729;DHT22;18309;43.658;1.312;2023-08-20T12:28:35;30.90;87.50
31729;DHT22;18309;43.658;1.312;2023-08-20T12:31:01;31.00;86.50
31729;DHT22;18309;43.658;1.312;2023-08-20T12:33:28;31.00;86.60
31729;DHT22;18309;43.658;1.312;2023-08-20T12:35:55;31.10;86.50
31729;DHT22;18309;43.658;1.312;2023-08-20T12:38:21;31.10;86.30
31729;DHT22;18309;43.658;1.312;2023-08-20T12:40:49;31.10;85.80
31729;DHT22;18309;43.658;1.312;2023-08-20T12:43:14;31.20;85.60
31729;DHT22;18309;43.658;1.312;2023-08-20T12:45:40;31.20;85.60
31729;DHT22;18309;43.658;1.312;2023-08-20T12:48:06;31.20;85.50
31729;DHT22;18309;43.658;1.312;2023-08-20T12:50:33;31.30;85.20
31729;DHT22;18309;43.658;1.312;2023-08-20T12:52:59;31.40;85.10
31729;DHT22;18309;43.658;1.312;2023-08-20T12:55:25;31.40;84.80
31729;DHT22;18309;43.658;1.312;2023-08-20T12:57:55;31.50;84.60
31729;DHT22;18309;43.658;1.312;2023-08-20T13:00:22;31.50;84.40
31729;DHT22;18309;43.658;1.312;2023-08-20T13:02:48;31.60;84.10
31729;DHT22;18309;43.658;1.312;2023-08-20T13:05:14;31.90;83.10
31729;DHT22;18309;43.658;1.312;2023-08-20T13:07:40;31.90;82.60
31729;DHT22;18309;43.658;1.312;2023-08-20T13:10:08;31.90;82.70
31729;DHT22;18309;43.658;1.312;2023-08-20T13:12:37;32.00;82.90
31729;DHT22;18309;43.658;1.312;2023-08-20T13:15:03;32.10;82.90
31729;DHT22;18309;43.658;1.312;2023-08-20T13:17:30;32.20;82.70
31729;DHT22;18309;43.658;1.312;2023-08-20T13:19:55;32.30;82.60
31729;DHT22;18309;43.658;1.312;2023-08-20T13:22:22;32.30;82.10
31729;DHT22;18309;43.658;1.312;2023-08-20T13:24:47;32.50;82.00
31729;DHT22;18309;43.658;1.312;2023-08-20T13:27:15;32.60;81.60
31729;DHT22;18309;43.658;1.312;2023-08-20T13:29:41;32.70;80.50
31729;DHT22;18309;43.658;1.312;2023-08-20T13:32:07;32.80;80.10
31729;DHT22;18309;43.658;1.312;2023-08-20T13:34:34;32.90;80.00
31729;DHT22;18309;43.658;1.312;2023-08-20T13:37:00;33.10;80.00
31729;DHT22;18309;43.658;1.312;2023-08-20T13:39:26;33.20;80.10
31729;DHT22;18309;43.658;1.312;2023-08-20T13:41:52;33.30;79.90
31729;DHT22;18309;43.658;1.312;2023-08-20T13:44:19;33.40;79.70
31729;DHT22;18309;43.658;1.312;2023-08-20T13:46:44;33.60;79.40
31729;DHT22;18309;43.658;1.312;2023-08-20T13:49:10;33.70;77.50
31729;DHT22;18309;43.658;1.312;2023-08-20T13:51:36;33.90;77.60
31729;DHT22;18309;43.658;1.312;2023-08-20T13:54:01;34.00;76.50
31729;DHT22;18309;43.658;1.312;2023-08-20T13:56:27;34.20;76.00
31729;DHT22;18309;43.658;1.312;2023-08-20T13:58:53;34.30;76.30
31729;DHT22;18309;43.658;1.312;2023-08-20T14:01:19;34.40;76.50
31729;DHT22;18309;43.658;1.312;2023-08-20T14:03:45;34.60;76.70
31729;DHT22;18309;43.658;1.312;2023-08-20T14:06:10;34.70;76.50
31729;DHT22;18309;43.658;1.312;2023-08-20T14:08:36;34.90;76.80
31729;DHT22;18309;43.658;1.312;2023-08-20T14:11:01;35.00;75.40
31729;DHT22;18309;43.658;1.312;2023-08-20T14:13:27;35.20;74.80
31729;DHT22;18309;43.658;1.312;2023-08-20T14:15:53;35.30;74.10
31729;DHT22;18309;43.658;1.312;2023-08-20T14:18:18;35.50;74.20
31729;DHT22;18309;43.658;1.312;2023-08-20T14:20:44;35.60;73.80
31729;DHT22;18309;43.658;1.312;2023-08-20T14:23:10;35.70;73.40
31729;DHT22;18309;43.658;1.312;2023-08-20T14:25:36;35.90;73.00
31729;DHT22;18309;43.658;1.312;2023-08-20T14:28:01;36.10;72.00
31729;DHT22;18309;43.658;1.312;2023-08-20T14:30:27;36.20;71.30
31729;DHT22;18309;43.658;1.312;2023-08-20T14:32:53;36.30;70.70
31729;DHT22;18309;43.658;1.312;2023-08-20T14:35:19;36.50;69.80
31729;DHT22;18309;43.658;1.312;2023-08-20T14:37:45;36.70;69.90
31729;DHT22;18309;43.658;1.312;2023-08-20T14:40:11;36.80;68.90
31729;DHT22;18309;43.658;1.312;2023-08-20T14:42:37;37.00;68.80
31729;DHT22;18309;43.658;1.312;2023-08-20T14:45:03;37.10;68.60
31729;DHT22;18309;43.658;1.312;2023-08-20T14:47:30;37.20;67.80
31729;DHT22;18309;43.658;1.312;2023-08-20T14:49:56;37.30;68.20
31729;DHT22;18309;43.658;1.312;2023-08-20T14:52:22;37.50;68.40
31729;DHT22;18309;43.658;1.312;2023-08-20T14:54:49;37.60;68.10
31729;DHT22;18309;43.658;1.312;2023-08-20T14:57:15;37.70;67.20
31729;DHT22;18309;43.658;1.312;2023-08-20T14:59:43;37.90;67.70
31729;DHT22;18309;43.658;1.312;2023-08-20T15:02:08;38.00;67.80
31729;DHT22;18309;43.658;1.312;2023-08-20T15:04:34;38.20;67.60
31729;DHT22;18309;43.658;1.312;2023-08-20T15:07:00;38.30;66.10
31729;DHT22;18309;43.658;1.312;2023-08-20T15:09:25;38.50;66.00
31729;DHT22;18309;43.658;1.312;2023-08-20T15:11:51;38.60;66.00
31729;DHT22;18309;43.658;1.312;2023-08-20T15:14:17;38.70;65.80
31729;DHT22;18309;43.658;1.312;2023-08-20T15:16:43;38.90;65.30
31729;DHT22;18309;43.658;1.312;2023-08-20T15:19:09;39.00;65.20
31729;DHT22;18309;43.658;1.312;2023-08-20T15:21:34;39.20;64.90
31729;DHT22;18309;43.658;1.312;2023-08-20T15:24:00;39.20;64.50
31729;DHT22;18309;43.658;1.312;2023-08-20T15:26:26;39.40;64.40
31729;DHT22;18309;43.658;1.312;2023-08-20T15:28:52;39.50;64.30
31729;DHT22;18309;43.658;1.312;2023-08-20T15:31:17;39.70;63.90
31729;DHT22;18309;43.658;1.312;2023-08-20T15:33:43;39.80;63.50
31729;DHT22;18309;43.658;1.312;2023-08-20T15:36:09;40.00;63.20
31729;DHT22;18309;43.658;1.312;2023-08-20T15:38:35;40.10;62.30
31729;DHT22;18309;43.658;1.312;2023-08-20T15:41:01;40.20;62.20
31729;DHT22;18309;43.658;1.312;2023-08-20T15:43:27;40.30;61.90
31729;DHT22;18309;43.658;1.312;2023-08-20T15:45:53;40.40;61.80
31729;DHT22;18309;43.658;1.312;2023-08-20T15:48:19;40.60;61.70